Time;durP1;ratioP1;P1;durP2;ratioP2;P2;SDS_P1;SDS_P2;PMS_P1;PMS_P2;Temp;Humidity;BMP_temperature;BMP_pressure;BME280_temperature;BME280_humidity;BME280_pressure;Samples;Min_cycle;Max_cycle;Signal;HPM_P1;HPM_P2
2021/10/24 00:00:25;;;;;;;;;;;;;;;21.39;55.81;102335.53;2091382;28;822;-59
2021/10/24 00:01:25;;;;;;;;;;;;;;;21.41;54.13;102343.63;2091413;28;1991;-60
2021/10/24 00:02:25;;;;;;;;;;;;;;;21.49;54.34;102336.28;2091399;28;1028;-59
2021/10/24 00:03:25;;;;;;;;;;;;;;;21.50;55.28;102331.81;2091306;28;760;-59
2021/10/24 00:04:25;;;;;;;;;;;;;;;21.46;55.34;102336.34;2091158;28;1374;-61
2021/10/24 00:05:25;;;;;;;;;;;;;;;21.43;56.16;102334.56;2091325;28;1028;-59
2021/10/24 00:06:25;;;;;;;;;;;;;;;21.41;55.32;102332.81;2091443;28;829;-59
2021/10/24 00:07:26;;;;;;;;;;;;;;;21.42;55.96;102324.69;2091523;28;981;-60
2021/10/24 00:08:26;;;;;;;;;;;;;;;21.38;56.01;102331.06;2091173;28;1322;-59
2021/10/24 00:09:26;;;;;;;;;;;;;;;21.43;54.52;102334.56;2091383;28;957;-60
2021/10/24 00:10:26;;;;;;;;;;;;;;;21.47;55.30;102330.94;2091457;28;764;-60
2021/10/24 00:11:26;;;;;;;;;;;;;;;21.40;55.90;102328.34;2091036;28;982;-59
2021/10/24 00:12:26;;;;;;;;;;;;;;;21.35;55.42;102330.22;2091381;28;809;-60
2021/10/24 00:13:28;;;;;;;;;;;;;;;21.35;55.10;102320.31;2091451;28;973;-60
2021/10/24 00:14:29;;;;;;;;;;;;;;;21.46;55.41;102328.28;2091380;28;819;-59
2021/10/24 00:15:29;;;;;;;;;;;;;;;21.42;55.13;102330.09;2091330;28;1389;-60
2021/10/24 00:16:30;;;;;;;;;;;;;;;21.41;56.20;102336.41;2091290;28;806;-59
2021/10/24 00:17:30;;;;;;;;;;;;;;;21.50;55.10;102334.50;2091271;28;1329;-59
2021/10/24 00:18:30;;;;;;;;;;;;;;;21.58;54.74;102327.19;2091477;28;795;-60
2021/10/24 00:19:30;;;;;;;;;;;;;;;21.45;55.26;102324.66;2091073;28;981;-59
2021/10/24 00:20:32;;;;;;;;;;;;;;;21.48;55.37;102332.72;2091279;28;1949;-59
2021/10/24 00:21:32;;;;;;;;;;;;;;;21.51;56.34;102323.69;2091446;28;873;-60
2021/10/24 00:22:32;;;;;;;;;;;;;;;21.48;56.30;102326.44;2091168;28;843;-59
2021/10/24 00:23:33;;;;;;;;;;;;;;;21.38;55.87;102322.09;2091381;28;875;-59
2021/10/24 00:24:33;;;;;;;;;;;;;;;21.36;55.88;102324.78;2091420;28;799;-60
2021/10/24 00:25:33;;;;;;;;;;;;;;;21.40;56.37;102323.84;2091162;28;875;-60
2021/10/24 00:26:34;;;;;;;;;;;;;;;21.41;55.25;102325.63;2091382;28;981;-59
2021/10/24 00:27:34;;;;;;;;;;;;;;;21.48;56.41;102324.63;2091292;28;831;-59
2021/10/24 00:28:34;;;;;;;;;;;;;;;21.49;54.59;102322.81;2091337;28;803;-59
2021/10/24 00:29:34;;;;;;;;;;;;;;;21.54;56.19;102328.16;2091327;28;771;-60
2021/10/24 00:30:34;;;;;;;;;;;;;;;21.41;55.65;102332.81;2091073;28;775;-59
2021/10/24 00:31:35;;;;;;;;;;;;;;;21.44;55.13;102330.97;2091350;28;848;-59
2021/10/24 00:32:35;;;;;;;;;;;;;;;21.37;55.60;102323.88;2091463;28;866;-59
2021/10/24 00:33:35;;;;;;;;;;;;;;;21.43;55.21;102322.91;2090961;28;842;-59
2021/10/24 00:34:35;;;;;;;;;;;;;;;21.51;53.89;102325.50;2091271;28;985;-60
2021/10/24 00:35:35;;;;;;;;;;;;;;;21.44;56.43;102330.09;2091479;28;763;-60
2021/10/24 00:36:36;;;;;;;;;;;;;;;21.39;56.95;102326.56;2091191;28;978;-59
2021/10/24 00:37:36;;;;;;;;;;;;;;;21.37;56.02;102331.09;2086021;28;1225;-59
2021/10/24 00:38:36;;;;;;;;;;;;;;;21.35;55.79;102330.22;2083014;28;2693;-59
2021/10/24 00:39:36;;;;;;;;;;;;;;;21.39;56.36;102331.97;2082841;28;752;-59
2021/10/24 00:40:36;;;;;;;;;;;;;;;21.39;55.29;102330.13;2083116;28;1943;-59
2021/10/24 00:41:37;;;;;;;;;;;;;;;21.35;55.48;102336.47;2083081;28;802;-59
2021/10/24 00:42:43;;;;;;;;;;;;;;;21.30;56.58;102331.16;2082912;28;977;-60
2021/10/24 00:43:44;;;;;;;;;;;;;;;21.33;55.97;102336.50;2083197;28;835;-60
2021/10/24 00:44:44;;;;;;;;;;;;;;;21.38;54.46;102343.66;2082293;28;1156;-59
2021/10/24 00:45:44;;;;;;;;;;;;;;;21.37;56.43;102347.25;2082515;28;993;-59
2021/10/24 00:46:44;;;;;;;;;;;;;;;21.33;56.00;102346.38;2083015;28;974;-60
2021/10/24 00:47:44;;;;;;;;;;;;;;;21.38;55.58;102333.75;2082699;28;834;-59
2021/10/24 00:48:44;;;;;;;;;;;;;;;21.37;56.03;102331.97;2083004;28;981;-59
2021/10/24 00:49:45;;;;;;;;;;;;;;;21.35;55.97;102338.28;2082486;28;734;-59
2021/10/24 00:50:45;;;;;;;;;;;;;;;21.27;56.79;102341.97;2082471;28;843;-59
2021/10/24 00:51:46;;;;;;;;;;;;;;;21.30;56.38;102343.72;2082903;28;1005;-60
2021/10/24 00:52:47;;;;;;;;;;;;;;;21.33;55.23;102341.00;2082923;28;809;-59
2021/10/24 00:53:47;;;;;;;;;;;;;;;21.26;56.38;102344.69;2082717;28;863;-59
2021/10/24 00:54:48;;;;;;;;;;;;;;;21.28;55.47;102342.84;2083111;28;870;-59
2021/10/24 00:55:48;;;;;;;;;;;;;;;21.31;55.50;102345.50;2082276;28;1358;-59
2021/10/24 00:56:49;;;;;;;;;;;;;;;21.37;55.86;102344.56;2082280;28;1244;-59
2021/10/24 00:57:50;;;;;;;;;;;;;;;21.36;56.39;102340.09;2083060;28;960;-59
2021/10/24 00:58:50;;;;;;;;;;;;;;;21.31;56.30;102338.34;2083449;28;875;-59
2021/10/24 00:59:50;;;;;;;;;;;;;;;21.22;56.07;102337.53;2084490;28;879;-60
2021/10/24 01:00:50;;;;;;;;;;;;;;;21.20;56.53;102337.56;2084355;28;1970;-59
2021/10/24 01:01:51;;;;;;;;;;;;;;;21.28;54.49;102340.16;2083624;28;1367;-59
2021/10/24 01:02:51;;;;;;;;;;;;;;;21.30;54.36;102346.44;2083861;28;937;-59
2021/10/24 01:03:51;;;;;;;;;;;;;;;21.34;54.99;102340.09;2083961;28;1636;-60
2021/10/24 01:04:52;;;;;;;;;;;;;;;21.27;57.38;102341.06;2083874;28;851;-59
2021/10/24 01:05:53;;;;;;;;;;;;;;;21.31;55.06;102340.13;2084470;28;780;-59
2021/10/24 01:06:54;;;;;;;;;;;;;;;21.30;56.30;102341.03;2083548;28;1295;-59
2021/10/24 01:07:54;;;;;;;;;;;;;;;21.33;55.34;102346.38;2083878;28;1406;-59
2021/10/24 01:08:55;;;;;;;;;;;;;;;21.27;55.83;102336.59;2084401;28;990;-60
2021/10/24 01:09:55;;;;;;;;;;;;;;;21.30;57.13;102336.56;2083664;28;1652;-60
2021/10/24 01:10:55;;;;;;;;;;;;;;;21.30;55.09;102335.66;2083726;28;1340;-58
2021/10/24 01:11:56;;;;;;;;;;;;;;;21.30;55.76;102338.34;2084296;28;1024;-59
2021/10/24 01:12:56;;;;;;;;;;;;;;;21.28;55.86;102342.84;2084382;28;863;-60
2021/10/24 01:13:56;;;;;;;;;;;;;;;21.26;55.50;102342.88;2084397;28;1020;-59
2021/10/24 01:14:56;;;;;;;;;;;;;;;21.23;56.33;102340.22;2084356;28;827;-59
2021/10/24 01:16:13;;;;;;;;;;;;;;;21.18;56.14;102336.69;2084352;28;961;-59
2021/10/24 01:17:13;;;;;;;;;;;;;;;21.25;54.48;102332.13;2084205;28;966;-60
2021/10/24 01:18:13;;;;;;;;;;;;;;;21.29;54.51;102332.06;2084239;28;788;-60
2021/10/24 01:19:13;;;;;;;;;;;;;;;21.36;54.92;102334.69;2084388;28;859;-59
2021/10/24 01:20:15;;;;;;;;;;;;;;;21.22;56.36;102334.84;2084107;28;930;-59
2021/10/24 01:21:16;;;;;;;;;;;;;;;21.21;55.92;102330.38;2084145;28;1898;-59
2021/10/24 01:22:16;;;;;;;;;;;;;;;21.22;55.29;102326.75;2084310;28;833;-59
2021/10/24 01:23:16;;;;;;;;;;;;;;;21.20;54.64;102325.91;2084292;28;875;-59
2021/10/24 01:24:17;;;;;;;;;;;;;;;21.22;55.00;102334.84;2084303;28;851;-60
2021/10/24 01:25:17;;;;;;;;;;;;;;;21.27;55.02;102328.50;2084243;28;937;-59
2021/10/24 01:26:18;;;;;;;;;;;;;;;21.28;54.90;102329.38;2083410;28;1180;-59
2021/10/24 01:27:18;;;;;;;;;;;;;;;21.29;53.96;102325.78;2084064;28;1334;-59
2021/10/24 01:28:18;;;;;;;;;;;;;;;21.33;55.07;102330.22;2084272;28;830;-59
2021/10/24 01:29:18;;;;;;;;;;;;;;;21.30;54.35;102322.16;2084222;28;847;-59
2021/10/24 01:30:19;;;;;;;;;;;;;;;21.25;54.58;102326.72;2084253;28;946;-60
2021/10/24 01:31:19;;;;;;;;;;;;;;;21.11;56.35;102330.50;2084266;28;859;-59
2021/10/24 01:32:19;;;;;;;;;;;;;;;21.13;56.86;102323.28;2084162;28;1362;-59
2021/10/24 01:33:21;;;;;;;;;;;;;;;21.22;55.40;102326.75;2084219;28;981;-60
2021/10/24 01:34:21;;;;;;;;;;;;;;;21.15;56.36;102320.56;2083881;28;819;-60
2021/10/24 01:35:21;;;;;;;;;;;;;;;21.23;55.98;102323.16;2084202;28;764;-60
2021/10/24 01:36:22;;;;;;;;;;;;;;;21.18;54.05;102326.84;2084222;28;769;-59
2021/10/24 01:37:22;;;;;;;;;;;;;;;21.17;55.93;102311.56;2084165;28;1273;-59
2021/10/24 01:38:22;;;;;;;;;;;;;;;21.26;55.53;102320.41;2084112;28;982;-59
2021/10/24 01:39:23;;;;;;;;;;;;;;;21.20;55.44;102320.53;2084123;28;954;-61
2021/10/24 01:40:23;;;;;;;;;;;;;;;21.25;56.16;102315.94;2084122;28;1180;-59
2021/10/24 01:41:24;;;;;;;;;;;;;;;21.26;55.25;102323.13;2084149;28;1894;-59
2021/10/24 01:42:24;;;;;;;;;;;;;;;21.14;54.89;102317.00;2084067;28;823;-60
2021/10/24 01:43:26;;;;;;;;;;;;;;;21.14;56.20;102317.00;2084150;28;785;-59
2021/10/24 01:44:27;;;;;;;;;;;;;;;21.18;54.56;102316.06;2084099;28;973;-59
2021/10/24 01:45:28;;;;;;;;;;;;;;;21.11;56.67;102314.34;2083850;28;780;-59
2021/10/24 01:46:28;;;;;;;;;;;;;;;21.11;55.49;102308.94;2084117;28;1122;-59
2021/10/24 01:47:28;;;;;;;;;;;;;;;21.19;55.85;102306.16;2084086;28;824;-59
2021/10/24 01:48:28;;;;;;;;;;;;;;;21.23;55.27;102309.69;2084079;28;866;-60
2021/10/24 01:49:28;;;;;;;;;;;;;;;21.28;54.82;102311.41;2084058;28;918;-59
2021/10/24 01:50:28;;;;;;;;;;;;;;;21.27;55.57;102308.72;2083928;28;862;-59
2021/10/24 01:51:29;;;;;;;;;;;;;;;21.24;54.71;102312.38;2084097;28;914;-59
2021/10/24 01:52:29;;;;;;;;;;;;;;;21.18;56.26;102307.06;2084192;28;812;-60
2021/10/24 01:53:31;;;;;;;;;;;;;;;21.13;56.78;102307.13;2083754;28;776;-59
2021/10/24 01:54:31;;;;;;;;;;;;;;;21.20;56.36;102301.66;2084123;28;1185;-59
2021/10/24 01:55:32;;;;;;;;;;;;;;;21.18;55.25;102299.88;2083971;28;836;-59
2021/10/24 01:56:32;;;;;;;;;;;;;;;21.17;56.38;102302.56;2083573;28;1364;-59
2021/10/24 01:57:32;;;;;;;;;;;;;;;21.16;56.27;102300.78;2084055;28;910;-59
2021/10/24 01:58:32;;;;;;;;;;;;;;;;;;2083975;28;1056;-59
2021/10/24 01:59:32;;;;;;;;;;;;;;;21.19;54.09;102306.16;2083838;28;863;-59
2021/10/24 02:00:32;;;;;;;;;;;;;;;21.17;55.10;102303.50;2083998;28;1914;-60
2021/10/24 02:01:33;;;;;;;;;;;;;;;21.22;54.25;102298.03;2083988;28;997;-59
2021/10/24 02:02:33;;;;;;;;;;;;;;;21.22;55.75;102289.03;2083807;28;1164;-59
2021/10/24 02:03:33;;;;;;;;;;;;;;;21.16;55.27;102290.94;2084012;28;791;-59
2021/10/24 02:04:33;;;;;;;;;;;;;;;21.14;55.72;102291.84;2084016;28;1020;-59
2021/10/24 02:05:34;;;;;;;;;;;;;;;21.13;54.93;102293.66;2083746;28;891;-59
2021/10/24 02:06:34;;;;;;;;;;;;;;;21.12;55.59;102290.97;2084009;28;838;-59
2021/10/24 02:07:35;;;;;;;;;;;;;;;21.11;55.94;102292.78;2084049;28;871;-59
2021/10/24 02:08:35;;;;;;;;;;;;;;;21.17;54.80;102292.72;2083771;28;865;-59
2021/10/24 02:09:36;;;;;;;;;;;;;;;21.08;56.06;102292.81;2083874;28;1040;-60
2021/10/24 02:10:37;;;;;;;;;;;;;;;21.13;55.25;102296.34;2082925;28;881;-60
2021/10/24 02:11:37;;;;;;;;;;;;;;;21.08;56.09;102295.50;2083913;28;1799;-59
2021/10/24 02:12:37;;;;;;;;;;;;;;;21.13;54.19;102290.97;2083938;28;785;-59
2021/10/24 02:13:38;;;;;;;;;;;;;;;21.27;53.71;102295.25;2083966;28;814;-60
2021/10/24 02:14:38;;;;;;;;;;;;;;;21.19;55.43;102295.38;2083818;28;1033;-59
2021/10/24 02:15:38;;;;;;;;;;;;;;;21.12;55.10;102299.06;2083775;28;812;-59
2021/10/24 02:16:39;;;;;;;;;;;;;;;21.15;54.61;102294.53;2083932;28;856;-59
2021/10/24 02:17:39;;;;;;;;;;;;;;;21.22;55.39;102295.34;2083745;28;1044;-60
2021/10/24 02:18:39;;;;;;;;;;;;;;;21.22;54.47;102297.13;2083804;28;847;-60
2021/10/24 02:19:39;;;;;;;;;;;;;;;21.23;55.45;102293.50;2083820;28;970;-60
2021/10/24 02:20:41;;;;;;;;;;;;;;;21.18;55.04;102288.19;2083758;28;1963;-59
2021/10/24 02:21:41;;;;;;;;;;;;;;;21.13;55.93;102288.28;2083488;28;795;-59
2021/10/24 02:22:41;;;;;;;;;;;;;;;21.13;55.00;102298.13;2083976;28;835;-60
2021/10/24 02:23:41;;;;;;;;;;;;;;;21.15;55.52;102286.44;2083759;28;970;-59
2021/10/24 02:24:41;;;;;;;;;;;;;;;21.17;55.71;102291.81;2083816;28;815;-59
2021/10/24 02:25:42;;;;;;;;;;;;;;;21.24;55.79;102289.91;2083889;28;827;-60
2021/10/24 02:26:42;;;;;;;;;;;;;;;21.22;55.30;102291.72;2083687;28;1025;-59
2021/10/24 02:27:42;;;;;;;;;;;;;;;21.19;55.80;102298.06;2083749;28;760;-59
2021/10/24 02:28:42;;;;;;;;;;;;;;;21.14;56.91;102295.44;2083842;28;843;-61
2021/10/24 02:29:43;;;;;;;;;;;;;;;21.16;56.35;102292.72;2083874;28;914;-59
2021/10/24 02:30:43;;;;;;;;;;;;;;;21.20;55.46;102290.88;2083750;28;1032;-60
2021/10/24 02:31:44;;;;;;;;;;;;;;;21.18;55.00;102297.19;2083790;28;920;-60
2021/10/24 02:32:44;;;;;;;;;;;;;;;21.10;57.04;102298.19;2083734;28;898;-59
2021/10/24 02:33:44;;;;;;;;;;;;;;;21.14;55.44;102295.44;2083750;28;905;-59
2021/10/24 02:34:44;;;;;;;;;;;;;;;21.12;56.60;102299.06;2083661;28;858;-59
2021/10/24 02:35:44;;;;;;;;;;;;;;;21.10;55.97;102290.09;2083490;28;752;-60
2021/10/24 02:36:45;;;;;;;;;;;;;;;21.10;56.42;102292.78;2083709;28;946;-59
2021/10/24 02:37:45;;;;;;;;;;;;;;;21.14;56.10;102291.84;2090146;28;1460;-60
2021/10/24 02:38:45;;;;;;;;;;;;;;;21.07;56.31;102295.53;2091908;28;984;-59
2021/10/24 02:39:45;;;;;;;;;;;;;;;21.08;55.18;102292.81;2091947;28;1087;-59
2021/10/24 02:40:46;;;;;;;;;;;;;;;21.06;57.04;102291.94;2091717;28;1899;-60
2021/10/24 02:41:46;;;;;;;;;;;;;;;21.00;56.30;102289.31;2091294;28;897;-59
2021/10/24 02:42:48;;;;;;;;;;;;;;;21.02;55.10;102292.91;2091398;28;826;-59
2021/10/24 02:43:48;;;;;;;;;;;;;;;21.15;55.89;102288.22;2091628;28;1023;-61
2021/10/24 02:44:48;;;;;;;;;;;;;;;21.29;54.19;102288.03;2091940;28;834;-59
2021/10/24 02:45:48;;;;;;;;;;;;;;;21.26;55.25;102291.69;2091870;28;914;-59
2021/10/24 02:46:50;;;;;;;;;;;;;;;21.22;54.82;102295.34;2091832;28;989;-60
2021/10/24 02:47:50;;;;;;;;;;;;;;;21.17;54.37;102286.41;2091855;28;980;-59
2021/10/24 02:48:50;;;;;;;;;;;;;;;21.09;55.45;102281.13;2091617;28;766;-59
2021/10/24 02:49:50;;;;;;;;;;;;;;;21.20;54.71;102286.38;2091779;28;866;-59
2021/10/24 02:50:51;;;;;;;;;;;;;;;21.11;55.22;102282.00;2091800;28;984;-59
2021/10/24 02:51:51;;;;;;;;;;;;;;;21.08;56.07;102286.53;2091878;28;910;-59
2021/10/24 02:52:52;;;;;;;;;;;;;;;21.01;54.95;102293.81;2091898;28;873;-60
2021/10/24 02:53:52;;;;;;;;;;;;;;;21.00;54.72;102294.72;2091815;28;1012;-58
2021/10/24 02:54:52;;;;;;;;;;;;;;;21.08;55.57;102289.22;2091541;28;1020;-59
2021/10/24 02:55:52;;;;;;;;;;;;;;;21.08;55.35;102292.81;2091962;28;1103;-59
2021/10/24 02:56:53;;;;;;;;;;;;;;;21.01;54.97;102294.69;2091645;28;1200;-60
2021/10/24 02:57:53;;;;;;;;;;;;;;;21.02;55.98;102300.97;2091807;28;771;-59
2021/10/24 02:58:53;;;;;;;;;;;;;;;21.07;54.78;102298.22;2091845;28;847;-59
2021/10/24 02:59:54;;;;;;;;;;;;;;;21.04;55.42;102293.78;2091588;28;838;-59
2021/10/24 03:00:54;;;;;;;;;;;;;;;21.05;54.83;102297.34;2091758;28;1910;-59
2021/10/24 03:01:54;;;;;;;;;;;;;;;21.13;55.47;102298.13;2091808;28;803;-60
2021/10/24 03:02:54;;;;;;;;;;;;;;;21.08;55.25;102295.50;2090860;28;1167;-59
2021/10/24 03:03:55;;;;;;;;;;;;;;;21.12;55.08;102299.97;2091200;28;874;-59
2021/10/24 03:04:55;;;;;;;;;;;;;;;21.11;55.48;102299.97;2091777;28;902;-59
2021/10/24 03:05:55;;;;;;;;;;;;;;;21.12;54.50;102294.56;2091077;28;930;-59
2021/10/24 03:06:55;;;;;;;;;;;;;;;21.13;55.42;102293.66;2091167;28;767;-59
2021/10/24 03:07:56;;;;;;;;;;;;;;;21.23;53.15;102299.81;2091572;28;996;-59
2021/10/24 03:08:56;;;;;;;;;;;;;;;21.15;54.64;102294.53;2091678;28;969;-59
2021/10/24 03:09:56;;;;;;;;;;;;;;;21.05;55.76;102291.94;2091639;28;796;-59
2021/10/24 03:10:56;;;;;;;;;;;;;;;21.16;54.68;102295.41;2091626;28;1268;-59
2021/10/24 03:11:56;;;;;;;;;;;;;;;21.14;55.56;102287.34;2091783;28;842;-59
2021/10/24 03:12:57;;;;;;;;;;;;;;;21.15;54.93;102290.94;2091677;28;1028;-59
2021/10/24 03:13:57;;;;;;;;;;;;;;;21.03;55.14;102287.47;2091679;28;834;-59
2021/10/24 03:14:57;;;;;;;;;;;;;;;21.03;55.47;102295.56;2091062;28;1238;-59
2021/10/24 03:15:57;;;;;;;;;;;;;;;21.16;54.04;102290.03;2091025;28;1232;-59
2021/10/24 03:16:57;;;;;;;;;;;;;;;21.10;55.54;102295.47;2091675;28;778;-59
2021/10/24 03:17:57;;;;;;;;;;;;;;;21.02;56.06;102292.91;2091849;28;1016;-59
2021/10/24 03:18:58;;;;;;;;;;;;;;;21.10;55.90;102291.00;2091302;28;957;-59
2021/10/24 03:19:58;;;;;;;;;;;;;;;21.08;55.38;102295.50;2091607;28;1043;-59
2021/10/24 03:20:58;;;;;;;;;;;;;;;21.11;56.11;102290.09;2091627;28;1910;-60
2021/10/24 03:21:59;;;;;;;;;;;;;;;21.17;54.23;102287.31;2091194;28;748;-59
2021/10/24 03:23:00;;;;;;;;;;;;;;;21.14;56.32;102289.16;2091630;28;819;-59
2021/10/24 03:24:01;;;;;;;;;;;;;;;21.10;55.53;102291.00;2091551;28;803;-60
2021/10/24 03:25:01;;;;;;;;;;;;;;;21.07;55.88;102291.03;2091473;28;1020;-59
2021/10/24 03:26:01;;;;;;;;;;;;;;;21.03;55.25;102289.28;2091659;28;874;-60
2021/10/24 03:27:02;;;;;;;;;;;;;;;21.03;55.47;102292.88;2091583;28;967;-60
2021/10/24 03:28:02;;;;;;;;;;;;;;;21.10;55.78;102293.69;2091521;28;854;-59
2021/10/24 03:29:02;;;;;;;;;;;;;;;21.17;54.01;102294.50;2091613;28;965;-59
2021/10/24 03:30:03;;;;;;;;;;;;;;;21.14;56.26;102290.06;2091621;28;768;-60
2021/10/24 03:31:03;;;;;;;;;;;;;;;21.09;55.66;102283.81;2091614;28;790;-59
2021/10/24 03:32:04;;;;;;;;;;;;;;;21.09;56.98;102288.31;2091425;28;771;-60
2021/10/24 03:33:04;;;;;;;;;;;;;;;21.14;55.38;102287.34;2091794;28;921;-60
2021/10/24 03:34:04;;;;;;;;;;;;;;;21.22;54.99;102283.63;2091688;28;791;-59
2021/10/24 03:35:04;;;;;;;;;;;;;;;21.07;56.13;102292.81;2091514;28;767;-59
2021/10/24 03:36:04;;;;;;;;;;;;;;;21.09;55.71;102283.81;2091490;28;961;-60
2021/10/24 03:37:04;;;;;;;;;;;;;;;21.04;56.27;102285.69;2090523;28;1208;-59
2021/10/24 03:38:05;;;;;;;;;;;;;;;21.06;55.53;102283.88;2083389;28;862;-59
2021/10/24 03:39:05;;;;;;;;;;;;;;;21.03;56.25;102283.91;2083282;28;807;-59
2021/10/24 03:40:05;;;;;;;;;;;;;;;21.05;55.59;102276.69;2083138;28;780;-59
2021/10/24 03:41:06;;;;;;;;;;;;;;;21.10;55.95;102280.22;2083220;28;1955;-59
2021/10/24 03:42:06;;;;;;;;;;;;;;;21.13;55.51;102276.59;2083211;28;859;-59
2021/10/24 03:43:06;;;;;;;;;;;;;;;21.01;55.33;102280.34;2083399;28;968;-59
2021/10/24 03:44:06;;;;;;;;;;;;;;;21.11;55.10;102278.41;2083214;28;772;-59
2021/10/24 03:45:07;;;;;;;;;;;;;;;21.05;55.37;102271.31;2083242;28;1041;-60
2021/10/24 03:46:07;;;;;;;;;;;;;;;21.03;56.72;102278.50;2083107;28;1192;-59
2021/10/24 03:47:08;;;;;;;;;;;;;;;21.02;55.82;102282.13;2083227;28;839;-59
2021/10/24 03:48:08;;;;;;;;;;;;;;;21.05;55.98;102281.19;2083229;28;772;-59
2021/10/24 03:49:08;;;;;;;;;;;;;;;21.12;54.25;102278.41;2083435;28;843;-59
2021/10/24 03:50:08;;;;;;;;;;;;;;;21.18;55.56;102275.63;2083174;28;981;-59
2021/10/24 03:51:08;;;;;;;;;;;;;;;21.19;55.11;102279.19;2083025;28;1040;-59
2021/10/24 03:52:09;;;;;;;;;;;;;;;21.08;54.77;102271.25;2082522;28;796;-60
2021/10/24 03:53:09;;;;;;;;;;;;;;;21.05;55.55;102273.09;2082680;28;851;-59
2021/10/24 03:54:09;;;;;;;;;;;;;;;21.05;55.91;102276.69;2083146;28;1024;-60
2021/10/24 03:55:12;;;;;;;;;;;;;;;21.05;55.55;102281.19;2083405;28;799;-60
2021/10/24 03:56:12;;;;;;;;;;;;;;;21.13;55.16;102284.66;2083056;28;1086;-59
2021/10/24 03:57:13;;;;;;;;;;;;;;;21.09;56.21;102272.13;2083208;28;980;-59
2021/10/24 03:58:14;;;;;;;;;;;;;;;21.03;55.35;102279.38;2083257;28;732;-61
2021/10/24 03:59:14;;;;;;;;;;;;;;;21.08;54.99;102271.25;2083219;28;823;-59
2021/10/24 04:00:14;;;;;;;;;;;;;;;21.07;54.44;102273.97;2083144;28;984;-59
2021/10/24 04:01:14;;;;;;;;;;;;;;;21.13;53.79;102280.19;2083154;28;1957;-59
2021/10/24 04:02:15;;;;;;;;;;;;;;;21.01;55.62;102278.53;2083023;28;842;-59
2021/10/24 04:03:15;;;;;;;;;;;;;;;21.05;54.94;102282.09;2083197;28;842;-59
2021/10/24 04:04:16;;;;;;;;;;;;;;;21.48;54.26;102286.00;2083173;28;1150;-59
2021/10/24 04:05:16;;;;;;;;;;;;;;;21.96;53.11;102279.88;2083188;28;1103;-59
2021/10/24 04:06:16;;;;;;;;;;;;;;;22.25;52.85;102283.91;2083122;28;815;-58
2021/10/24 04:07:17;;;;;;;;;;;;;;;22.33;53.04;102281.97;2083079;28;854;-60
2021/10/24 04:08:17;;;;;;;;;;;;;;;22.51;51.94;102277.16;2083126;28;783;-59
2021/10/24 04:09:17;;;;;;;;;;;;;;;22.55;53.09;102276.16;2083176;28;989;-59
2021/10/24 04:10:19;;;;;;;;;;;;;;;22.68;52.13;102273.22;2083098;28;805;-59
2021/10/24 04:11:20;;;;;;;;;;;;;;;22.77;50.50;102276.63;2083086;28;835;-60
2021/10/24 04:12:20;;;;;;;;;;;;;;;22.88;51.61;102268.31;2083158;28;795;-59
2021/10/24 04:13:21;;;;;;;;;;;;;;;22.87;51.17;102271.03;2083096;28;981;-59
2021/10/24 04:14:24;;;;;;;;;;;;;;;23.04;49.83;102266.19;2083134;28;839;-60
2021/10/24 04:15:25;;;;;;;;;;;;;;;23.14;51.07;102266.84;2083050;28;886;-60
2021/10/24 04:16:25;;;;;;;;;;;;;;;23.09;51.63;102260.66;2082485;28;1189;-60
2021/10/24 04:17:26;;;;;;;;;;;;;;;23.12;49.63;102267.84;2082543;28;1427;-60
2021/10/24 04:18:27;;;;;;;;;;;;;;;23.29;51.13;102259.38;2082297;28;855;-59
2021/10/24 04:19:27;;;;;;;;;;;;;;;23.27;51.38;102263.94;2082653;28;974;-60
2021/10/24 04:20:27;;;;;;;;;;;;;;;23.34;50.56;102262.88;2083079;28;775;-61
2021/10/24 04:21:27;;;;;;;;;;;;;;;23.31;49.63;102254.81;2082973;28;1893;-60
2021/10/24 04:22:29;;;;;;;;;;;;;;;23.42;49.98;102254.56;2083069;28;839;-60
2021/10/24 04:23:29;;;;;;;;;;;;;;;23.39;49.47;102244.72;2082996;28;831;-62
2021/10/24 04:24:29;;;;;;;;;;;;;;;23.45;50.40;102255.41;2082934;28;669;-60
2021/10/24 04:25:30;;;;;;;;;;;;;;;23.46;52.22;102250.88;2083019;28;863;-60
2021/10/24 04:26:30;;;;;;;;;;;;;;;23.45;49.93;102255.41;2083121;28;827;-60
2021/10/24 04:27:30;;;;;;;;;;;;;;;23.41;51.54;102252.78;2083011;28;1323;-59
2021/10/24 04:28:31;;;;;;;;;;;;;;;23.45;51.96;102251.78;2083042;28;859;-60
2021/10/24 04:29:31;;;;;;;;;;;;;;;23.43;51.64;102254.53;2083036;28;791;-60
2021/10/24 04:30:31;;;;;;;;;;;;;;;23.48;50.42;102252.63;2083102;28;1255;-58
2021/10/24 04:31:31;;;;;;;;;;;;;;;23.57;50.99;102256.00;2082891;28;1028;-58
2021/10/24 04:32:31;;;;;;;;;;;;;;;23.67;51.22;102252.16;2082863;28;847;-59
2021/10/24 04:33:31;;;;;;;;;;;;;;;23.62;52.29;102249.59;2083227;28;978;-59
2021/10/24 04:34:32;;;;;;;;;;;;;;;23.62;51.21;102251.38;2084612;28;815;-59
2021/10/24 04:35:32;;;;;;;;;;;;;;;23.69;51.53;102258.44;2084569;28;882;-59
2021/10/24 04:36:32;;;;;;;;;;;;;;;23.64;50.65;102255.84;2084675;28;1432;-59
2021/10/24 04:37:32;;;;;;;;;;;;;;;23.64;51.52;102249.53;2084218;28;1419;-59
2021/10/24 04:38:32;;;;;;;;;;;;;;;23.59;50.77;102248.75;2084599;28;859;-59
2021/10/24 04:39:33;;;;;;;;;;;;;;;23.60;51.12;102255.94;2084661;28;847;-59
2021/10/24 04:40:33;;;;;;;;;;;;;;;23.60;51.53;102250.53;2084492;28;985;-59
2021/10/24 04:41:33;;;;;;;;;;;;;;;23.60;51.96;102255.94;2084624;28;1893;-59
2021/10/24 04:42:33;;;;;;;;;;;;;;;23.72;50.61;102244.81;2084580;28;830;-59
2021/10/24 04:43:33;;;;;;;;;;;;;;;23.65;51.50;102249.50;2084463;28;910;-59
2021/10/24 04:44:34;;;;;;;;;;;;;;;23.66;51.08;102248.59;2084561;28;1005;-59
2021/10/24 04:45:35;;;;;;;;;;;;;;;23.68;51.10;102254.84;2084589;28;986;-60
2021/10/24 04:46:35;;;;;;;;;;;;;;;23.70;50.77;102257.50;2084572;28;845;-59
2021/10/24 04:47:35;;;;;;;;;;;;;;;23.74;50.16;102253.78;2084599;28;1036;-59
2021/10/24 04:48:35;;;;;;;;;;;;;;;23.80;51.32;102256.34;2084454;28;827;-60
2021/10/24 04:49:35;;;;;;;;;;;;;;;23.76;49.97;102253.78;2084462;28;1039;-59
2021/10/24 04:50:36;;;;;;;;;;;;;;;23.78;49.67;102255.50;2084498;28;985;-59
2021/10/24 04:51:36;;;;;;;;;;;;;;;23.68;51.28;102248.53;2084304;28;1075;-60
2021/10/24 04:52:37;;;;;;;;;;;;;;;23.66;50.44;102250.38;2084540;28;985;-59
2021/10/24 04:53:37;;;;;;;;;;;;;;;23.71;50.43;102255.69;2084508;28;862;-59
2021/10/24 04:54:37;;;;;;;;;;;;;;;23.71;51.79;102253.88;2084381;28;764;-60
2021/10/24 04:55:38;;;;;;;;;;;;;;;23.75;50.86;102254.69;2084409;28;1111;-59
2021/10/24 04:56:38;;;;;;;;;;;;;;;23.65;51.26;102244.09;2084334;28;1057;-59
2021/10/24 04:57:40;;;;;;;;;;;;;;;23.74;51.08;102250.22;2084541;28;817;-59
2021/10/24 04:58:40;;;;;;;;;;;;;;;23.65;51.65;102249.50;2083794;28;1224;-60
2021/10/24 04:59:40;;;;;;;;;;;;;;;23.73;51.67;102245.72;2083870;28;890;-60
2021/10/24 05:00:40;;;;;;;;;;;;;;;23.76;52.19;102248.34;2084028;28;1981;-59
2021/10/24 05:01:42;;;;;;;;;;;;;;;23.81;50.86;102250.00;2084446;28;993;-59
2021/10/24 05:02:42;;;;;;;;;;;;;;;23.81;52.82;102252.72;2084404;28;800;-59
2021/10/24 05:03:43;;;;;;;;;;;;;;;23.77;51.69;102250.13;2084487;28;789;-59
2021/10/24 05:04:43;;;;;;;;;;;;;;;23.77;52.57;102242.91;2084401;28;866;-59
2021/10/24 05:05:46;;;;;;;;;;;;;;;23.80;51.53;102245.53;2084412;28;970;-59
2021/10/24 05:06:46;;;;;;;;;;;;;;;23.77;51.38;102245.59;2084444;28;822;-60
2021/10/24 05:07:47;;;;;;;;;;;;;;;23.86;50.11;102240.88;2090222;28;1403;-59
2021/10/24 05:08:47;;;;;;;;;;;;;;;23.81;52.00;102251.84;2092659;28;783;-59
2021/10/24 05:09:47;;;;;;;;;;;;;;;23.83;51.25;102250.88;2092604;28;902;-59
2021/10/24 05:10:47;;;;;;;;;;;;;;;23.90;53.16;102243.47;2091792;28;1283;-60
2021/10/24 05:11:47;;;;;;;;;;;;;;;23.85;51.87;102231.88;2092009;28;1025;-59
2021/10/24 05:12:47;;;;;;;;;;;;;;;23.83;51.96;102229.22;2092024;28;852;-59
2021/10/24 05:13:47;;;;;;;;;;;;;;;23.81;51.81;102235.59;2092079;28;835;-60
2021/10/24 05:14:48;;;;;;;;;;;;;;;23.90;51.62;102229.06;2092540;28;1005;-59
2021/10/24 05:15:48;;;;;;;;;;;;;;;23.95;52.70;102232.53;2092471;28;1052;-59
2021/10/24 05:16:48;;;;;;;;;;;;;;;23.97;51.32;102226.16;2092496;28;858;-60
2021/10/24 05:17:48;;;;;;;;;;;;;;;23.96;51.36;102232.47;2092594;28;1024;-59